K-ocean — MCXD5 — position and weather

sailwx.info

Track history (hours):
 
Tides and Currents Weather Stations Pressure Air Temp Water Temp Dewpoint Dewpoint Depression Visibility Wind Speed Wind Dir Waves Ship Positions

K-ocean

Last reported at 2017-Sep-20 00:00 UTC. Time now 2017-Sep-20 00:24 UTC.
Position N 37°21' W 009°27'.

Length 121 m; draft 5 m.

Type: Cargo ship. MMSI: 235800000.

Date/timePositionNaut miles runAvg speedWind from/ knotsBaromVisibWave heightAir tempDewpointWater temp
2017-Sep-20 00:00N 37°21' W 009°27'713.3
2017-Sep-19 23:30N 37°15' W 009°25'713.2
2017-Sep-19 23:00N 37°08' W 009°22'713.4
2017-Sep-19 22:30N 37°02' W 009°20'713.5
2017-Sep-19 22:00N 36°55' W 009°18'613.2
2017-Sep-19 21:30N 36°50' W 009°14'713.5
2017-Sep-19 21:00N 36°45' W 009°08'713.7
2017-Sep-19 20:30N 36°43' W 008°60'612.0
2017-Sep-19 20:00N 36°40' W 008°53'713.6
2017-Sep-19 19:30N 36°33' W 008°51'713.3
2017-Sep-19 19:00N 36°27' W 008°48'713.2
2017-Sep-19 18:30N 36°21' W 008°45'713.6
2017-Sep-19 18:00N 36°15' W 008°42'713.6
2017-Sep-19 17:30N 36°08' W 008°39'713.5
2017-Sep-19 17:00N 36°02' W 008°37'145 4.6
2017-Sep-18 09:22N 33°46' W 007°34'14513.7
2017-Sep-17 22:48N 36°00' W 008°40'3814.4
2017-Sep-17 20:09N 36°31' W 009°08'215.6
2017-Sep-17 19:59N 36°32' W 009°11'715.4
2017-Sep-17 19:30N 36°35' W 009°19'1115.6
2017-Sep-17 18:49N 36°43' W 009°29'3714.8
2017-Sep-17 16:18N 37°20' W 009°30'1515.6
2017-Sep-17 15:19N 37°35' W 009°22'515.9
2017-Sep-17 15:00N 37°39' W 009°20'815.9
2017-Sep-17 14:31N 37°47' W 009°17'815.5
2017-Sep-17 14:01N 37°54' W 009°14'815.7
2017-Sep-17 13:31N 38°01' W 009°10'815.4
2017-Sep-17 13:01N 38°09' W 009°07'815.4
2017-Sep-17 12:31N 38°16' W 009°03'815.0
2017-Sep-17 12:01N 38°23' W 009°00'713.7
2017-Sep-17 11:30N 38°29' W 008°56'4 7.2
2017-Sep-17 11:01N 38°31' W 008°52'0 0.0
2017-Sep-17 10:29N 38°31' W 008°52'0 0.0
2017-Sep-17 09:56N 38°31' W 008°52'0 0.0
2017-Sep-17 09:17N 38°31' W 008°52'0 0.0
2017-Sep-17 08:59N 38°31' W 008°52'0 0.0
2017-Sep-17 08:29N 38°31' W 008°52'0 0.0
2017-Sep-17 07:56N 38°31' W 008°52'0 0.1
2017-Sep-17 07:31N 38°31' W 008°52'4 8.0
2017-Sep-17 07:00N 38°29' W 008°57'612.7
2017-Sep-17 06:30N 38°25' W 009°03'815.1
2017-Sep-17 06:00N 38°21' W 009°11'612.6
2017-Sep-17 05:30N 38°22' W 009°19'815.6
2017-Sep-17 05:00N 38°27' W 009°27'815.4
2017-Sep-17 04:30N 38°32' W 009°34'714.8
2017-Sep-17 04:00N 38°37' W 009°41'815.3
2017-Sep-17 03:30N 38°44' W 009°43'815.8
2017-Sep-17 03:00N 38°52' W 009°43'815.5
2017-Sep-17 02:30N 38°60' W 009°44'815.2
2017-Sep-17 02:00N 39°08' W 009°44'815.2
2017-Sep-17 01:30N 39°15' W 009°44'815.5
2017-Sep-17 01:00N 39°23' W 009°44'815.5
2017-Sep-17 00:30N 39°31' W 009°43'815.5
2017-Sep-16 23:58N 39°38' W 009°39'  
2017-Sep-13 13:52N 39°52' W 009°17'913.3
2017-Sep-13 13:12N 39°45' W 009°24'313.5
2017-Sep-13 13:00N 39°43' W 009°27'713.5
2017-Sep-13 12:31N 39°38' W 009°33'713.6
2017-Sep-13 12:00N 39°34' W 009°39'713.3
2017-Sep-13 11:30N 39°28' W 009°44'613.0
2017-Sep-13 11:00N 39°22' W 009°46'612.9
2017-Sep-13 10:30N 39°16' W 009°48'713.2
2017-Sep-13 10:00N 39°09' W 009°49'613.0
2017-Sep-13 09:30N 39°03' W 009°50'612.8
2017-Sep-13 09:00N 38°56' W 009°50'612.6
2017-Sep-13 08:30N 38°50' W 009°50'612.9
2017-Sep-13 08:00N 38°44' W 009°50'612.5
2017-Sep-13 07:30N 38°37' W 009°49'612.2
2017-Sep-13 07:00N 38°31' W 009°48'612.1
2017-Sep-13 06:30N 38°25' W 009°46'612.2
2017-Sep-13 06:00N 38°20' W 009°44'612.3
2017-Sep-13 05:30N 38°14' W 009°41'611.7
2017-Sep-13 05:00N 38°08' W 009°40'612.2
2017-Sep-13 04:30N 38°02' W 009°39'612.3
2017-Sep-13 04:00N 37°56' W 009°37'612.4
2017-Sep-13 03:30N 37°50' W 009°36'612.5
2017-Sep-13 03:00N 37°44' W 009°34'612.3
2017-Sep-13 02:30N 37°38' W 009°32'712.4
2017-Sep-13 01:57N 37°31' W 009°31'512.4
2017-Sep-13 01:30N 37°26' W 009°29'612.7
2017-Sep-13 01:00N 37°20' W 009°27'712.7
2017-Sep-13 00:30N 37°13' W 009°25'612.6
2017-Sep-13 00:00N 37°07' W 009°23'612.5
2017-Sep-12 23:30N 37°01' W 009°21'612.3
2017-Sep-12 23:00N 36°55' W 009°19'611.8
2017-Sep-12 22:30N 36°50' W 009°15'611.6
2017-Sep-12 22:00N 36°46' W 009°10'611.9
2017-Sep-12 21:30N 36°43' W 009°04'611.5
2017-Sep-12 21:00N 36°38' W 008°59'611.7
2017-Sep-12 20:30N 36°33' W 008°56'611.8
2017-Sep-12 20:00N 36°28' W 008°52'612.0
2017-Sep-12 19:30N 36°23' W 008°49'612.6
2017-Sep-12 19:00N 36°17' W 008°45'612.5
2017-Sep-12 18:30N 36°11' W 008°42'612.8
2017-Sep-12 18:00N 36°05' W 008°39'612.7
2017-Sep-12 17:30N 35°60' W 008°36'612.7
2017-Sep-12 17:00N 35°53' W 008°34'612.5
2017-Sep-12 16:30N 35°47' W 008°32'612.7
2017-Sep-12 16:00N 35°41' W 008°29'612.6
2017-Sep-12 15:30N 35°35' W 008°26'1512.6
2017-Sep-12 14:20N 35°22' W 008°19'612.6
2017-Sep-12 13:51N 35°16' W 008°16'17 0.5
2017-Sep-11 02:40N 35°27' W 008°32'315.5
2017-Sep-11 02:28N 35°30' W 008°33'715.3
2017-Sep-11 02:00N 35°37' W 008°36'1115.2
2017-Sep-11 01:15N 35°47' W 008°42'415.4
2017-Sep-11 01:00N 35°51' W 008°44'2415.4
2017-Sep-10 23:28N 36°13' W 008°55'815.6
2017-Sep-10 22:59N 36°20' W 008°58'815.7
2017-Sep-10 22:30N 36°27' W 009°02'714.9
2017-Sep-10 22:00N 36°30' W 009°10'815.4
2017-Sep-10 21:30N 36°34' W 009°19'815.7
2017-Sep-10 20:59N 36°40' W 009°25'815.3
2017-Sep-10 20:28N 36°46' W 009°31'915.4
2017-Sep-10 19:54N 36°54' W 009°35'715.7
2017-Sep-10 19:29N 37°01' W 009°37'815.4
2017-Sep-10 18:56N 37°09' W 009°37'915.7
2017-Sep-10 18:24N 37°17' W 009°36'615.5
2017-Sep-10 18:00N 37°23' W 009°35'1116.0
2017-Sep-10 17:20N 37°34' W 009°33'516.4
2017-Sep-10 17:01N 37°39' W 009°32'815.7
2017-Sep-10 16:31N 37°47' W 009°31'815.4
2017-Sep-10 16:01N 37°55' W 009°29'815.3
2017-Sep-10 15:31N 38°02' W 009°28'815.9
2017-Sep-10 15:01N 38°10' W 009°27'1615.6
2017-Sep-10 14:01N 38°26' W 009°25'815.8
2017-Sep-10 13:30N 38°34' W 009°24'714.3
2017-Sep-10 13:01N 38°40' W 009°19'611.9
2017-Sep-10 12:29N 38°41' W 009°11'4 8.8
2017-Sep-10 12:00N 38°43' W 009°07'0 0.0
2017-Sep-10 11:27N 38°43' W 009°07'0 0.0
2017-Sep-10 11:00N 38°43' W 009°07'0 0.0
2017-Sep-10 10:30N 38°43' W 009°07'0 0.0
2017-Sep-10 09:57N 38°43' W 009°07'0 0.0
2017-Sep-10 09:30N 38°43' W 009°07'0 0.0
2017-Sep-10 09:00N 38°43' W 009°07'0 0.0
2017-Sep-10 08:27N 38°43' W 009°07'0 0.8
2017-Sep-10 08:00N 38°43' W 009°07'610.8
2017-Sep-10 07:30N 38°41' W 009°13'510.5
2017-Sep-10 07:00N 38°39' W 009°19'714.0
2017-Sep-10 06:30N 38°37' W 009°28'714.9
2017-Sep-10 06:00N 38°37' W 009°37'612.7
2017-Sep-10 05:30N 38°41' W 009°43'815.7
2017-Sep-10 05:00N 38°49' W 009°44'815.3
2017-Sep-10 04:30N 38°57' W 009°44'815.1
2017-Sep-10 04:00N 39°05' W 009°44'815.2
2017-Sep-10 03:30N 39°12' W 009°44'715.0
2017-Sep-10 03:01N 39°20' W 009°44'815.7
2017-Sep-10 02:31N 39°27' W 009°44'  
Track history (hours):
 
Tides and Currents Weather Stations Pressure Air Temp Water Temp Dewpoint Dewpoint Depression Visibility Wind Speed Wind Dir Waves Ship Positions

K-ocean

Last reported at 2017-Sep-20 00:00 UTC. Time now 2017-Sep-20 00:24 UTC.
Position N 37°21' W 009°27'.

Length 121 m; draft 5 m.

Type: Cargo ship. MMSI: 235800000.

Date/timePositionNaut miles runAvg speedWind from/ knotsBaromVisibWave heightAir tempDewpointWater temp
2017-Sep-20 00:00N 37°21' W 009°27'713.3
2017-Sep-19 23:30N 37°15' W 009°25'713.2
2017-Sep-19 23:00N 37°08' W 009°22'713.4
2017-Sep-19 22:30N 37°02' W 009°20'713.5
2017-Sep-19 22:00N 36°55' W 009°18'613.2
2017-Sep-19 21:30N 36°50' W 009°14'713.5
2017-Sep-19 21:00N 36°45' W 009°08'713.7
2017-Sep-19 20:30N 36°43' W 008°60'612.0
2017-Sep-19 20:00N 36°40' W 008°53'713.6
2017-Sep-19 19:30N 36°33' W 008°51'713.3
2017-Sep-19 19:00N 36°27' W 008°48'713.2
2017-Sep-19 18:30N 36°21' W 008°45'713.6
2017-Sep-19 18:00N 36°15' W 008°42'713.6
2017-Sep-19 17:30N 36°08' W 008°39'713.5
2017-Sep-19 17:00N 36°02' W 008°37'145 4.6
2017-Sep-18 09:22N 33°46' W 007°34'14513.7
2017-Sep-17 22:48N 36°00' W 008°40'3814.4
2017-Sep-17 20:09N 36°31' W 009°08'215.6
2017-Sep-17 19:59N 36°32' W 009°11'715.4
2017-Sep-17 19:30N 36°35' W 009°19'1115.6
2017-Sep-17 18:49N 36°43' W 009°29'3714.8
2017-Sep-17 16:18N 37°20' W 009°30'1515.6
2017-Sep-17 15:19N 37°35' W 009°22'515.9
2017-Sep-17 15:00N 37°39' W 009°20'815.9
2017-Sep-17 14:31N 37°47' W 009°17'815.5
2017-Sep-17 14:01N 37°54' W 009°14'815.7
2017-Sep-17 13:31N 38°01' W 009°10'815.4
2017-Sep-17 13:01N 38°09' W 009°07'815.4
2017-Sep-17 12:31N 38°16' W 009°03'815.0
2017-Sep-17 12:01N 38°23' W 009°00'713.7
2017-Sep-17 11:30N 38°29' W 008°56'4 7.2
2017-Sep-17 11:01N 38°31' W 008°52'0 0.0
2017-Sep-17 10:29N 38°31' W 008°52'0 0.0
2017-Sep-17 09:56N 38°31' W 008°52'0 0.0
2017-Sep-17 09:17N 38°31' W 008°52'0 0.0
2017-Sep-17 08:59N 38°31' W 008°52'0 0.0
2017-Sep-17 08:29N 38°31' W 008°52'0 0.0
2017-Sep-17 07:56N 38°31' W 008°52'0 0.1
2017-Sep-17 07:31N 38°31' W 008°52'4 8.0
2017-Sep-17 07:00N 38°29' W 008°57'612.7
2017-Sep-17 06:30N 38°25' W 009°03'815.1
2017-Sep-17 06:00N 38°21' W 009°11'612.6
2017-Sep-17 05:30N 38°22' W 009°19'815.6
2017-Sep-17 05:00N 38°27' W 009°27'815.4
2017-Sep-17 04:30N 38°32' W 009°34'714.8
2017-Sep-17 04:00N 38°37' W 009°41'815.3
2017-Sep-17 03:30N 38°44' W 009°43'815.8
2017-Sep-17 03:00N 38°52' W 009°43'815.5
2017-Sep-17 02:30N 38°60' W 009°44'815.2
2017-Sep-17 02:00N 39°08' W 009°44'815.2
2017-Sep-17 01:30N 39°15' W 009°44'815.5
2017-Sep-17 01:00N 39°23' W 009°44'815.5
2017-Sep-17 00:30N 39°31' W 009°43'815.5
2017-Sep-16 23:58N 39°38' W 009°39'  
2017-Sep-13 13:52N 39°52' W 009°17'913.3
2017-Sep-13 13:12N 39°45' W 009°24'313.5
2017-Sep-13 13:00N 39°43' W 009°27'713.5
2017-Sep-13 12:31N 39°38' W 009°33'713.6
2017-Sep-13 12:00N 39°34' W 009°39'713.3
2017-Sep-13 11:30N 39°28' W 009°44'613.0
2017-Sep-13 11:00N 39°22' W 009°46'612.9
2017-Sep-13 10:30N 39°16' W 009°48'713.2
2017-Sep-13 10:00N 39°09' W 009°49'613.0
2017-Sep-13 09:30N 39°03' W 009°50'612.8
2017-Sep-13 09:00N 38°56' W 009°50'612.6
2017-Sep-13 08:30N 38°50' W 009°50'612.9
2017-Sep-13 08:00N 38°44' W 009°50'612.5
2017-Sep-13 07:30N 38°37' W 009°49'612.2
2017-Sep-13 07:00N 38°31' W 009°48'612.1
2017-Sep-13 06:30N 38°25' W 009°46'612.2
2017-Sep-13 06:00N 38°20' W 009°44'612.3
2017-Sep-13 05:30N 38°14' W 009°41'611.7
2017-Sep-13 05:00N 38°08' W 009°40'612.2
2017-Sep-13 04:30N 38°02' W 009°39'612.3
2017-Sep-13 04:00N 37°56' W 009°37'612.4
2017-Sep-13 03:30N 37°50' W 009°36'612.5
2017-Sep-13 03:00N 37°44' W 009°34'612.3
2017-Sep-13 02:30N 37°38' W 009°32'712.4
2017-Sep-13 01:57N 37°31' W 009°31'512.4
2017-Sep-13 01:30N 37°26' W 009°29'612.7
2017-Sep-13 01:00N 37°20' W 009°27'712.7
2017-Sep-13 00:30N 37°13' W 009°25'612.6
2017-Sep-13 00:00N 37°07' W 009°23'612.5
2017-Sep-12 23:30N 37°01' W 009°21'612.3
2017-Sep-12 23:00N 36°55' W 009°19'611.8
2017-Sep-12 22:30N 36°50' W 009°15'611.6
2017-Sep-12 22:00N 36°46' W 009°10'611.9
2017-Sep-12 21:30N 36°43' W 009°04'611.5
2017-Sep-12 21:00N 36°38' W 008°59'611.7
2017-Sep-12 20:30N 36°33' W 008°56'611.8
2017-Sep-12 20:00N 36°28' W 008°52'612.0
2017-Sep-12 19:30N 36°23' W 008°49'612.6
2017-Sep-12 19:00N 36°17' W 008°45'612.5
2017-Sep-12 18:30N 36°11' W 008°42'612.8
2017-Sep-12 18:00N 36°05' W 008°39'612.7
2017-Sep-12 17:30N 35°60' W 008°36'612.7
2017-Sep-12 17:00N 35°53' W 008°34'612.5
2017-Sep-12 16:30N 35°47' W 008°32'612.7
2017-Sep-12 16:00N 35°41' W 008°29'612.6
2017-Sep-12 15:30N 35°35' W 008°26'1512.6
2017-Sep-12 14:20N 35°22' W 008°19'612.6
2017-Sep-12 13:51N 35°16' W 008°16'17 0.5
2017-Sep-11 02:40N 35°27' W 008°32'315.5
2017-Sep-11 02:28N 35°30' W 008°33'715.3
2017-Sep-11 02:00N 35°37' W 008°36'1115.2
2017-Sep-11 01:15N 35°47' W 008°42'415.4
2017-Sep-11 01:00N 35°51' W 008°44'2415.4
2017-Sep-10 23:28N 36°13' W 008°55'815.6
2017-Sep-10 22:59N 36°20' W 008°58'815.7
2017-Sep-10 22:30N 36°27' W 009°02'714.9
2017-Sep-10 22:00N 36°30' W 009°10'815.4
2017-Sep-10 21:30N 36°34' W 009°19'815.7
2017-Sep-10 20:59N 36°40' W 009°25'815.3
2017-Sep-10 20:28N 36°46' W 009°31'915.4
2017-Sep-10 19:54N 36°54' W 009°35'715.7
2017-Sep-10 19:29N 37°01' W 009°37'815.4
2017-Sep-10 18:56N 37°09' W 009°37'915.7
2017-Sep-10 18:24N 37°17' W 009°36'615.5
2017-Sep-10 18:00N 37°23' W 009°35'1116.0
2017-Sep-10 17:20N 37°34' W 009°33'516.4
2017-Sep-10 17:01N 37°39' W 009°32'815.7
2017-Sep-10 16:31N 37°47' W 009°31'815.4
2017-Sep-10 16:01N 37°55' W 009°29'815.3
2017-Sep-10 15:31N 38°02' W 009°28'815.9
2017-Sep-10 15:01N 38°10' W 009°27'1615.6
2017-Sep-10 14:01N 38°26' W 009°25'815.8
2017-Sep-10 13:30N 38°34' W 009°24'714.3
2017-Sep-10 13:01N 38°40' W 009°19'611.9
2017-Sep-10 12:29N 38°41' W 009°11'4 8.8
2017-Sep-10 12:00N 38°43' W 009°07'0 0.0
2017-Sep-10 11:27N 38°43' W 009°07'0 0.0
2017-Sep-10 11:00N 38°43' W 009°07'0 0.0
2017-Sep-10 10:30N 38°43' W 009°07'0 0.0
2017-Sep-10 09:57N 38°43' W 009°07'0 0.0
2017-Sep-10 09:30N 38°43' W 009°07'0 0.0
2017-Sep-10 09:00N 38°43' W 009°07'0 0.0
2017-Sep-10 08:27N 38°43' W 009°07'0 0.8
2017-Sep-10 08:00N 38°43' W 009°07'610.8
2017-Sep-10 07:30N 38°41' W 009°13'510.5
2017-Sep-10 07:00N 38°39' W 009°19'714.0
2017-Sep-10 06:30N 38°37' W 009°28'714.9
2017-Sep-10 06:00N 38°37' W 009°37'612.7
2017-Sep-10 05:30N 38°41' W 009°43'815.7
2017-Sep-10 05:00N 38°49' W 009°44'815.3
2017-Sep-10 04:30N 38°57' W 009°44'815.1
2017-Sep-10 04:00N 39°05' W 009°44'815.2
2017-Sep-10 03:30N 39°12' W 009°44'715.0
2017-Sep-10 03:01N 39°20' W 009°44'815.7
2017-Sep-10 02:31N 39°27' W 009°44'  

Dump ship's entire track history